sensor_id;sensor_type;location;lat;lon;timestamp;temperature;humidity
71668;DHT22;59504;54.806;9.640;2023-08-17T00:00:16;14.50;67.30
71668;DHT22;59504;54.806;9.640;2023-08-17T00:02:18;14.50;67.30
71668;DHT22;59504;54.806;9.640;2023-08-17T00:04:19;14.40;67.10
71668;DHT22;59504;54.806;9.640;2023-08-17T00:06:19;14.50;66.90
71668;DHT22;59504;54.806;9.640;2023-08-17T00:08:20;14.50;67.30
71668;DHT22;59504;54.806;9.640;2023-08-17T00:10:20;14.40;67.20
71668;DHT22;59504;54.806;9.640;2023-08-17T00:12:21;14.50;67.60
71668;DHT22;59504;54.806;9.640;2023-08-17T00:14:21;14.40;67.50
71668;DHT22;59504;54.806;9.640;2023-08-17T00:16:22;14.50;67.70
71668;DHT22;59504;54.806;9.640;2023-08-17T00:18:23;14.50;67.60
71668;DHT22;59504;54.806;9.640;2023-08-17T00:20:24;14.50;67.90
71668;DHT22;59504;54.806;9.640;2023-08-17T00:22:24;14.40;67.50
71668;DHT22;59504;54.806;9.640;2023-08-17T00:24:25;14.50;67.50
71668;DHT22;59504;54.806;9.640;2023-08-17T00:26:25;14.50;67.20
71668;DHT22;59504;54.806;9.640;2023-08-17T00:28:26;14.50;67.60
71668;DHT22;59504;54.806;9.640;2023-08-17T00:30:28;14.50;67.90
71668;DHT22;59504;54.806;9.640;2023-08-17T00:32:28;14.50;68.00
71668;DHT22;59504;54.806;9.640;2023-08-17T00:34:29;14.50;67.80
71668;DHT22;59504;54.806;9.640;2023-08-17T00:36:29;14.50;67.90
71668;DHT22;59504;54.806;9.640;2023-08-17T00:38:30;14.50;68.10
71668;DHT22;59504;54.806;9.640;2023-08-17T00:40:30;14.50;68.10
71668;DHT22;59504;54.806;9.640;2023-08-17T00:42:51;14.50;68.30
71668;DHT22;59504;54.806;9.640;2023-08-17T00:45:12;14.50;68.40
71668;DHT22;59504;54.806;9.640;2023-08-17T00:47:32;14.50;68.30
71668;DHT22;59504;54.806;9.640;2023-08-17T00:49:53;14.40;68.40
71668;DHT22;59504;54.806;9.640;2023-08-17T00:51:53;14.50;68.40
71668;DHT22;59504;54.806;9.640;2023-08-17T00:53:58;14.50;68.60
71668;DHT22;59504;54.806;9.640;2023-08-17T00:55:59;14.40;68.20
71668;DHT22;59504;54.806;9.640;2023-08-17T00:58:00;14.50;68.60
71668;DHT22;59504;54.806;9.640;2023-08-17T01:00:00;14.60;68.50
71668;DHT22;59504;54.806;9.640;2023-08-17T01:02:01;14.50;68.60
71668;DHT22;59504;54.806;9.640;2023-08-17T01:04:02;14.50;69.60
71668;DHT22;59504;54.806;9.640;2023-08-17T01:06:02;14.40;68.90
71668;DHT22;59504;54.806;9.640;2023-08-17T01:08:03;14.40;69.00
71668;DHT22;59504;54.806;9.640;2023-08-17T01:10:04;14.40;69.00
71668;DHT22;59504;54.806;9.640;2023-08-17T01:14:16;14.50;68.80
71668;DHT22;59504;54.806;9.640;2023-08-17T01:16:22;14.40;68.80
71668;DHT22;59504;54.806;9.640;2023-08-17T01:18:26;14.50;69.10
71668;DHT22;59504;54.806;9.640;2023-08-17T01:20:28;14.40;69.00
71668;DHT22;59504;54.806;9.640;2023-08-17T01:22:38;14.40;68.70
71668;DHT22;59504;54.806;9.640;2023-08-17T01:24:41;14.50;69.20
71668;DHT22;59504;54.806;9.640;2023-08-17T01:27:01;14.50;68.90
71668;DHT22;59504;54.806;9.640;2023-08-17T01:29:22;14.40;69.40
71668;DHT22;59504;54.806;9.640;2023-08-17T01:31:24;14.50;69.50
71668;DHT22;59504;54.806;9.640;2023-08-17T01:33:52;14.50;69.60
71668;DHT22;59504;54.806;9.640;2023-08-17T01:36:18;14.50;69.80
71668;DHT22;59504;54.806;9.640;2023-08-17T01:38:40;14.50;69.90
71668;DHT22;59504;54.806;9.640;2023-08-17T01:41:01;14.50;69.70
71668;DHT22;59504;54.806;9.640;2023-08-17T01:43:22;14.50;69.70
71668;DHT22;59504;54.806;9.640;2023-08-17T01:45:43;14.50;69.70
71668;DHT22;59504;54.806;9.640;2023-08-17T01:47:43;14.50;70.50
71668;DHT22;59504;54.806;9.640;2023-08-17T01:50:04;14.50;70.50
71668;DHT22;59504;54.806;9.640;2023-08-17T01:52:26;14.40;70.00
71668;DHT22;59504;54.806;9.640;2023-08-17T01:54:47;14.50;69.90
71668;DHT22;59504;54.806;9.640;2023-08-17T01:57:08;14.50;69.80
71668;DHT22;59504;54.806;9.640;2023-08-17T01:59:28;14.50;69.60
71668;DHT22;59504;54.806;9.640;2023-08-17T02:01:49;14.50;69.60
71668;DHT22;59504;54.806;9.640;2023-08-17T02:04:09;14.50;69.50
71668;DHT22;59504;54.806;9.640;2023-08-17T02:06:30;14.50;69.20
71668;DHT22;59504;54.806;9.640;2023-08-17T02:08:50;14.50;68.80
71668;DHT22;59504;54.806;9.640;2023-08-17T02:11:12;14.50;69.20
71668;DHT22;59504;54.806;9.640;2023-08-17T02:13:32;14.50;69.40
71668;DHT22;59504;54.806;9.640;2023-08-17T02:15:53;14.50;69.50
71668;DHT22;59504;54.806;9.640;2023-08-17T02:18:14;14.50;69.10
71668;DHT22;59504;54.806;9.640;2023-08-17T02:20:34;14.40;69.10
71668;DHT22;59504;54.806;9.640;2023-08-17T02:22:55;14.40;69.10
71668;DHT22;59504;54.806;9.640;2023-08-17T02:25:15;14.40;69.40
71668;DHT22;59504;54.806;9.640;2023-08-17T02:27:36;14.50;69.80
71668;DHT22;59504;54.806;9.640;2023-08-17T02:29:57;14.40;69.40
71668;DHT22;59504;54.806;9.640;2023-08-17T02:32:17;14.40;69.60
71668;DHT22;59504;54.806;9.640;2023-08-17T02:34:38;14.50;69.80
71668;DHT22;59504;54.806;9.640;2023-08-17T02:36:58;14.50;69.40
71668;DHT22;59504;54.806;9.640;2023-08-17T02:39:19;14.40;69.40
71668;DHT22;59504;54.806;9.640;2023-08-17T02:41:39;14.40;69.60
71668;DHT22;59504;54.806;9.640;2023-08-17T02:44:00;14.40;70.10
71668;DHT22;59504;54.806;9.640;2023-08-17T02:46:21;14.40;69.80
71668;DHT22;59504;54.806;9.640;2023-08-17T02:48:41;14.50;70.10
71668;DHT22;59504;54.806;9.640;2023-08-17T02:51:02;14.40;70.00
71668;DHT22;59504;54.806;9.640;2023-08-17T02:53:22;14.40;70.10
71668;DHT22;59504;54.806;9.640;2023-08-17T02:55:43;14.40;70.40
71668;DHT22;59504;54.806;9.640;2023-08-17T02:58:03;14.40;70.50
71668;DHT22;59504;54.806;9.640;2023-08-17T03:00:24;14.40;70.60
71668;DHT22;59504;54.806;9.640;2023-08-17T03:02:44;14.40;70.10
71668;DHT22;59504;54.806;9.640;2023-08-17T03:05:05;14.40;70.00
71668;DHT22;59504;54.806;9.640;2023-08-17T03:07:25;14.40;70.20
71668;DHT22;59504;54.806;9.640;2023-08-17T03:09:46;14.40;70.80
71668;DHT22;59504;54.806;9.640;2023-08-17T03:12:06;14.40;71.00
71668;DHT22;59504;54.806;9.640;2023-08-17T03:14:27;14.40;71.40
71668;DHT22;59504;54.806;9.640;2023-08-17T03:16:47;14.40;71.20
71668;DHT22;59504;54.806;9.640;2023-08-17T03:19:08;14.40;71.10
71668;DHT22;59504;54.806;9.640;2023-08-17T03:21:31;14.40;71.00
71668;DHT22;59504;54.806;9.640;2023-08-17T03:23:52;14.40;70.90
71668;DHT22;59504;54.806;9.640;2023-08-17T03:26:12;14.50;70.90
71668;DHT22;59504;54.806;9.640;2023-08-17T03:28:33;14.40;70.80
71668;DHT22;59504;54.806;9.640;2023-08-17T03:30:56;14.40;71.00
71668;DHT22;59504;54.806;9.640;2023-08-17T03:33:17;14.40;70.90
71668;DHT22;59504;54.806;9.640;2023-08-17T03:35:36;14.50;71.30
71668;DHT22;59504;54.806;9.640;2023-08-17T03:37:55;14.40;71.00
71668;DHT22;59504;54.806;9.640;2023-08-17T03:40:15;14.40;71.40
71668;DHT22;59504;54.806;9.640;2023-08-17T03:42:34;14.40;71.20
71668;DHT22;59504;54.806;9.640;2023-08-17T03:44:50;14.50;71.30
71668;DHT22;59504;54.806;9.640;2023-08-17T03:47:10;14.40;71.20
71668;DHT22;59504;54.806;9.640;2023-08-17T03:49:29;14.50;72.10
71668;DHT22;59504;54.806;9.640;2023-08-17T03:51:48;14.40;71.00
71668;DHT22;59504;54.806;9.640;2023-08-17T03:54:07;14.50;71.10
71668;DHT22;59504;54.806;9.640;2023-08-17T03:56:27;14.40;71.20
71668;DHT22;59504;54.806;9.640;2023-08-17T03:58:46;14.40;71.70
71668;DHT22;59504;54.806;9.640;2023-08-17T04:01:05;14.50;71.90
71668;DHT22;59504;54.806;9.640;2023-08-17T04:03:25;14.40;72.10
71668;DHT22;59504;54.806;9.640;2023-08-17T04:05:45;14.40;71.80
71668;DHT22;59504;54.806;9.640;2023-08-17T04:08:04;14.40;71.80
71668;DHT22;59504;54.806;9.640;2023-08-17T04:10:23;14.40;71.80
71668;DHT22;59504;54.806;9.640;2023-08-17T04:12:42;14.40;71.80
71668;DHT22;59504;54.806;9.640;2023-08-17T04:15:02;14.40;72.70
71668;DHT22;59504;54.806;9.640;2023-08-17T04:17:21;14.40;72.20
71668;DHT22;59504;54.806;9.640;2023-08-17T04:19:40;14.40;71.40
71668;DHT22;59504;54.806;9.640;2023-08-17T04:21:59;14.30;71.70
71668;DHT22;59504;54.806;9.640;2023-08-17T04:24:18;14.40;71.80
71668;DHT22;59504;54.806;9.640;2023-08-17T04:26:38;14.40;71.80
71668;DHT22;59504;54.806;9.640;2023-08-17T04:28:57;14.40;71.80
71668;DHT22;59504;54.806;9.640;2023-08-17T04:31:17;14.40;71.70
71668;DHT22;59504;54.806;9.640;2023-08-17T04:33:36;14.40;71.80
71668;DHT22;59504;54.806;9.640;2023-08-17T04:35:55;14.40;72.10
71668;DHT22;59504;54.806;9.640;2023-08-17T04:38:15;14.40;71.70
71668;DHT22;59504;54.806;9.640;2023-08-17T04:40:34;14.40;72.90
71668;DHT22;59504;54.806;9.640;2023-08-17T04:42:53;14.30;73.00
71668;DHT22;59504;54.806;9.640;2023-08-17T04:45:12;14.40;71.80
71668;DHT22;59504;54.806;9.640;2023-08-17T04:47:32;14.30;72.10
71668;DHT22;59504;54.806;9.640;2023-08-17T04:49:51;14.40;72.00
71668;DHT22;59504;54.806;9.640;2023-08-17T04:52:10;14.40;72.10
71668;DHT22;59504;54.806;9.640;2023-08-17T04:54:29;14.40;72.00
71668;DHT22;59504;54.806;9.640;2023-08-17T04:56:49;14.40;71.90
71668;DHT22;59504;54.806;9.640;2023-08-17T04:59:08;14.40;71.90
71668;DHT22;59504;54.806;9.640;2023-08-17T05:01:27;14.40;72.60
71668;DHT22;59504;54.806;9.640;2023-08-17T05:03:47;14.40;73.80
71668;DHT22;59504;54.806;9.640;2023-08-17T05:06:06;14.40;73.10
71668;DHT22;59504;54.806;9.640;2023-08-17T05:08:25;14.30;73.60
71668;DHT22;59504;54.806;9.640;2023-08-17T05:10:44;14.40;74.00
71668;DHT22;59504;54.806;9.640;2023-08-17T05:13:04;14.40;74.00
71668;DHT22;59504;54.806;9.640;2023-08-17T05:15:23;14.40;73.60
71668;DHT22;59504;54.806;9.640;2023-08-17T05:17:42;14.40;73.40
71668;DHT22;59504;54.806;9.640;2023-08-17T05:20:02;14.40;73.90
71668;DHT22;59504;54.806;9.640;2023-08-17T05:22:21;14.40;73.40
71668;DHT22;59504;54.806;9.640;2023-08-17T05:24:40;14.50;74.00
71668;DHT22;59504;54.806;9.640;2023-08-17T05:27:00;14.40;74.10
71668;DHT22;59504;54.806;9.640;2023-08-17T05:29:19;14.40;74.40
71668;DHT22;59504;54.806;9.640;2023-08-17T05:31:38;14.40;74.10
71668;DHT22;59504;54.806;9.640;2023-08-17T05:33:58;14.40;75.00
71668;DHT22;59504;54.806;9.640;2023-08-17T05:36:17;14.50;74.60
71668;DHT22;59504;54.806;9.640;2023-08-17T05:38:36;14.50;74.20
71668;DHT22;59504;54.806;9.640;2023-08-17T05:40:56;14.50;74.20
71668;DHT22;59504;54.806;9.640;2023-08-17T05:43:15;14.50;74.50
71668;DHT22;59504;54.806;9.640;2023-08-17T05:45:35;14.50;74.80
71668;DHT22;59504;54.806;9.640;2023-08-17T05:47:56;14.60;75.50
71668;DHT22;59504;54.806;9.640;2023-08-17T05:50:15;14.60;74.40
71668;DHT22;59504;54.806;9.640;2023-08-17T05:52:34;14.60;75.30
71668;DHT22;59504;54.806;9.640;2023-08-17T05:54:53;14.70;74.90
71668;DHT22;59504;54.806;9.640;2023-08-17T05:57:13;14.60;75.60
71668;DHT22;59504;54.806;9.640;2023-08-17T05:59:32;14.60;75.80
71668;DHT22;59504;54.806;9.640;2023-08-17T06:01:52;14.60;75.80
71668;DHT22;59504;54.806;9.640;2023-08-17T06:04:11;14.60;74.90
71668;DHT22;59504;54.806;9.640;2023-08-17T06:06:30;14.70;76.00
71668;DHT22;59504;54.806;9.640;2023-08-17T06:08:49;14.60;76.10
71668;DHT22;59504;54.806;9.640;2023-08-17T06:11:08;14.70;76.20
71668;DHT22;59504;54.806;9.640;2023-08-17T06:13:28;14.70;75.50
71668;DHT22;59504;54.806;9.640;2023-08-17T06:15:47;14.80;76.10
71668;DHT22;59504;54.806;9.640;2023-08-17T06:18:06;14.80;76.00
71668;DHT22;59504;54.806;9.640;2023-08-17T06:20:26;14.80;75.30
71668;DHT22;59504;54.806;9.640;2023-08-17T06:22:46;14.80;75.70
71668;DHT22;59504;54.806;9.640;2023-08-17T06:25:05;14.80;75.80
71668;DHT22;59504;54.806;9.640;2023-08-17T06:27:25;14.80;75.90
71668;DHT22;59504;54.806;9.640;2023-08-17T06:29:44;14.90;75.10
71668;DHT22;59504;54.806;9.640;2023-08-17T06:32:03;14.90;75.40
71668;DHT22;59504;54.806;9.640;2023-08-17T06:34:23;14.90;75.50
71668;DHT22;59504;54.806;9.640;2023-08-17T06:36:42;14.90;76.30
71668;DHT22;59504;54.806;9.640;2023-08-17T06:39:14;15.00;76.40
71668;DHT22;59504;54.806;9.640;2023-08-17T06:41:33;15.00;75.50
71668;DHT22;59504;54.806;9.640;2023-08-17T06:43:53;15.00;75.80
71668;DHT22;59504;54.806;9.640;2023-08-17T06:46:12;15.00;74.40
71668;DHT22;59504;54.806;9.640;2023-08-17T06:48:32;15.10;75.60
71668;DHT22;59504;54.806;9.640;2023-08-17T06:50:51;15.30;76.30
71668;DHT22;59504;54.806;9.640;2023-08-17T06:53:10;15.10;74.30
71668;DHT22;59504;54.806;9.640;2023-08-17T06:55:29;15.10;73.70
71668;DHT22;59504;54.806;9.640;2023-08-17T06:57:48;15.20;74.00
71668;DHT22;59504;54.806;9.640;2023-08-17T07:00:11;15.20;75.50
71668;DHT22;59504;54.806;9.640;2023-08-17T07:02:31;15.20;74.60
71668;DHT22;59504;54.806;9.640;2023-08-17T07:04:50;15.20;74.70
71668;DHT22;59504;54.806;9.640;2023-08-17T07:07:09;15.20;74.10
71668;DHT22;59504;54.806;9.640;2023-08-17T07:09:28;15.20;75.00
71668;DHT22;59504;54.806;9.640;2023-08-17T07:11:47;15.30;74.40
71668;DHT22;59504;54.806;9.640;2023-08-17T07:14:06;15.40;73.70
71668;DHT22;59504;54.806;9.640;2023-08-17T07:16:26;15.40;74.10
71668;DHT22;59504;54.806;9.640;2023-08-17T07:18:45;15.40;73.80
71668;DHT22;59504;54.806;9.640;2023-08-17T07:21:04;15.40;74.60
71668;DHT22;59504;54.806;9.640;2023-08-17T07:23:24;15.40;73.80
71668;DHT22;59504;54.806;9.640;2023-08-17T07:25:43;15.40;73.70
71668;DHT22;59504;54.806;9.640;2023-08-17T07:28:03;15.40;73.70
71668;DHT22;59504;54.806;9.640;2023-08-17T07:30:22;15.50;73.70
71668;DHT22;59504;54.806;9.640;2023-08-17T07:32:41;15.50;73.60
71668;DHT22;59504;54.806;9.640;2023-08-17T07:35:00;15.60;74.20
71668;DHT22;59504;54.806;9.640;2023-08-17T07:37:20;15.60;73.40
71668;DHT22;59504;54.806;9.640;2023-08-17T07:39:39;15.60;73.30
71668;DHT22;59504;54.806;9.640;2023-08-17T07:41:58;15.60;73.20
71668;DHT22;59504;54.806;9.640;2023-08-17T07:44:17;15.60;72.70
71668;DHT22;59504;54.806;9.640;2023-08-17T07:46:37;15.70;72.40
71668;DHT22;59504;54.806;9.640;2023-08-17T07:48:57;15.70;72.60
71668;DHT22;59504;54.806;9.640;2023-08-17T07:51:16;15.80;72.30
71668;DHT22;59504;54.806;9.640;2023-08-17T07:53:35;15.80;72.40
71668;DHT22;59504;54.806;9.640;2023-08-17T07:55:55;15.90;72.20
71668;DHT22;59504;54.806;9.640;2023-08-17T07:58:14;15.80;72.00
71668;DHT22;59504;54.806;9.640;2023-08-17T08:00:33;15.90;72.40
71668;DHT22;59504;54.806;9.640;2023-08-17T08:02:52;15.90;71.10
71668;DHT22;59504;54.806;9.640;2023-08-17T08:05:11;15.90;70.90
71668;DHT22;59504;54.806;9.640;2023-08-17T08:07:33;15.90;71.00
71668;DHT22;59504;54.806;9.640;2023-08-17T08:09:52;16.00;71.90
71668;DHT22;59504;54.806;9.640;2023-08-17T08:12:11;16.00;71.30
71668;DHT22;59504;54.806;9.640;2023-08-17T08:14:31;16.10;71.40
71668;DHT22;59504;54.806;9.640;2023-08-17T08:16:50;16.10;71.40
71668;DHT22;59504;54.806;9.640;2023-08-17T08:19:09;16.10;71.10
71668;DHT22;59504;54.806;9.640;2023-08-17T08:21:29;16.10;70.90
71668;DHT22;59504;54.806;9.640;2023-08-17T08:23:48;16.20;70.40
71668;DHT22;59504;54.806;9.640;2023-08-17T08:26:07;16.20;70.50
71668;DHT22;59504;54.806;9.640;2023-08-17T08:28:26;16.30;70.70
71668;DHT22;59504;54.806;9.640;2023-08-17T08:30:45;16.40;71.60
71668;DHT22;59504;54.806;9.640;2023-08-17T08:33:05;16.30;71.40
71668;DHT22;59504;54.806;9.640;2023-08-17T08:35:24;16.30;70.10
71668;DHT22;59504;54.806;9.640;2023-08-17T08:37:43;16.40;69.60
71668;DHT22;59504;54.806;9.640;2023-08-17T08:40:02;16.40;69.50
71668;DHT22;59504;54.806;9.640;2023-08-17T08:42:22;16.50;69.50
71668;DHT22;59504;54.806;9.640;2023-08-17T08:44:41;16.50;69.60
71668;DHT22;59504;54.806;9.640;2023-08-17T08:47:01;16.40;69.30
71668;DHT22;59504;54.806;9.640;2023-08-17T08:49:20;16.50;69.20
71668;DHT22;59504;54.806;9.640;2023-08-17T08:51:42;16.50;69.20
71668;DHT22;59504;54.806;9.640;2023-08-17T08:54:03;16.50;69.10
71668;DHT22;59504;54.806;9.640;2023-08-17T08:56:26;16.50;69.20
71668;DHT22;59504;54.806;9.640;2023-08-17T08:58:47;16.50;69.00
71668;DHT22;59504;54.806;9.640;2023-08-17T09:01:06;16.50;68.90
71668;DHT22;59504;54.806;9.640;2023-08-17T09:03:26;16.50;68.90
71668;DHT22;59504;54.806;9.640;2023-08-17T09:05:49;16.50;69.10
71668;DHT22;59504;54.806;9.640;2023-08-17T09:08:09;16.60;69.30
71668;DHT22;59504;54.806;9.640;2023-08-17T09:10:30;16.60;69.40
71668;DHT22;59504;54.806;9.640;2023-08-17T09:12:49;16.70;69.60
71668;DHT22;59504;54.806;9.640;2023-08-17T09:15:08;16.60;69.30
71668;DHT22;59504;54.806;9.640;2023-08-17T09:17:31;16.70;69.20
71668;DHT22;59504;54.806;9.640;2023-08-17T09:19:51;16.70;69.20
71668;DHT22;59504;54.806;9.640;2023-08-17T09:22:10;16.70;69.10
71668;DHT22;59504;54.806;9.640;2023-08-17T09:24:36;16.70;68.90
71668;DHT22;59504;54.806;9.640;2023-08-17T09:26:55;16.70;68.60
71668;DHT22;59504;54.806;9.640;2023-08-17T09:29:17;16.80;69.00
71668;DHT22;59504;54.806;9.640;2023-08-17T09:31:36;16.80;69.00
71668;DHT22;59504;54.806;9.640;2023-08-17T09:33:58;16.80;68.60
71668;DHT22;59504;54.806;9.640;2023-08-17T09:36:21;16.90;68.80
71668;DHT22;59504;54.806;9.640;2023-08-17T09:38:41;16.90;69.10
71668;DHT22;59504;54.806;9.640;2023-08-17T09:41:00;16.90;68.80
71668;DHT22;59504;54.806;9.640;2023-08-17T09:43:19;16.90;68.90
71668;DHT22;59504;54.806;9.640;2023-08-17T09:45:45;17.00;68.90
71668;DHT22;59504;54.806;9.640;2023-08-17T09:48:09;17.00;68.90
71668;DHT22;59504;54.806;9.640;2023-08-17T09:50:28;17.10;68.90
71668;DHT22;59504;54.806;9.640;2023-08-17T09:52:47;17.10;68.30
71668;DHT22;59504;54.806;9.640;2023-08-17T09:55:07;17.20;68.50
71668;DHT22;59504;54.806;9.640;2023-08-17T09:57:26;17.20;68.10
71668;DHT22;59504;54.806;9.640;2023-08-17T09:59:46;17.20;68.20
71668;DHT22;59504;54.806;9.640;2023-08-17T10:02:14;17.30;68.30
71668;DHT22;59504;54.806;9.640;2023-08-17T10:04:35;17.30;68.20
71668;DHT22;59504;54.806;9.640;2023-08-17T10:06:57;17.40;68.00
71668;DHT22;59504;54.806;9.640;2023-08-17T10:09:17;17.30;67.10
71668;DHT22;59504;54.806;9.640;2023-08-17T10:11:38;17.40;67.50
71668;DHT22;59504;54.806;9.640;2023-08-17T10:14:02;17.40;67.70
71668;DHT22;59504;54.806;9.640;2023-08-17T10:21:34;17.60;67.60
71668;DHT22;59504;54.806;9.640;2023-08-17T10:23:55;17.60;66.80
71668;DHT22;59504;54.806;9.640;2023-08-17T10:26:15;17.60;67.00
71668;DHT22;59504;54.806;9.640;2023-08-17T10:28:35;17.70;67.10
71668;DHT22;59504;54.806;9.640;2023-08-17T10:30:55;17.70;67.00
71668;DHT22;59504;54.806;9.640;2023-08-17T10:33:14;17.70;67.00
71668;DHT22;59504;54.806;9.640;2023-08-17T10:35:34;17.80;67.30
71668;DHT22;59504;54.806;9.640;2023-08-17T10:37:54;17.90;67.40
71668;DHT22;59504;54.806;9.640;2023-08-17T10:40:14;17.90;66.90
71668;DHT22;59504;54.806;9.640;2023-08-17T10:42:34;17.90;67.00
71668;DHT22;59504;54.806;9.640;2023-08-17T10:44:55;18.00;66.90
71668;DHT22;59504;54.806;9.640;2023-08-17T10:49:39;18.00;66.70
71668;DHT22;59504;54.806;9.640;2023-08-17T10:52:05;18.00;66.90
71668;DHT22;59504;54.806;9.640;2023-08-17T10:54:35;18.00;67.10
71668;DHT22;59504;54.806;9.640;2023-08-17T10:56:55;18.10;67.50
71668;DHT22;59504;54.806;9.640;2023-08-17T10:59:24;18.20;67.70
71668;DHT22;59504;54.806;9.640;2023-08-17T11:01:43;18.20;67.40
71668;DHT22;59504;54.806;9.640;2023-08-17T11:04:09;18.30;67.30
71668;DHT22;59504;54.806;9.640;2023-08-17T11:06:29;18.30;67.90
71668;DHT22;59504;54.806;9.640;2023-08-17T11:08:52;18.40;67.20
71668;DHT22;59504;54.806;9.640;2023-08-17T11:11:13;18.40;66.70
71668;DHT22;59504;54.806;9.640;2023-08-17T11:13:34;18.50;66.70
71668;DHT22;59504;54.806;9.640;2023-08-17T11:15:53;18.50;66.60
71668;DHT22;59504;54.806;9.640;2023-08-17T11:18:13;18.50;66.50
71668;DHT22;59504;54.806;9.640;2023-08-17T11:20:32;18.60;67.40
71668;DHT22;59504;54.806;9.640;2023-08-17T11:22:51;18.60;66.00
71668;DHT22;59504;54.806;9.640;2023-08-17T11:25:10;18.70;67.10
71668;DHT22;59504;54.806;9.640;2023-08-17T11:27:30;18.70;66.50
71668;DHT22;59504;54.806;9.640;2023-08-17T11:29:49;18.70;66.60
71668;DHT22;59504;54.806;9.640;2023-08-17T11:32:09;18.80;66.10
71668;DHT22;59504;54.806;9.640;2023-08-17T11:34:29;18.80;66.10
71668;DHT22;59504;54.806;9.640;2023-08-17T11:36:48;18.80;66.20
71668;DHT22;59504;54.806;9.640;2023-08-17T11:39:07;18.90;65.70
71668;DHT22;59504;54.806;9.640;2023-08-17T11:41:27;18.80;64.80
71668;DHT22;59504;54.806;9.640;2023-08-17T11:43:46;18.80;65.00
71668;DHT22;59504;54.806;9.640;2023-08-17T11:46:05;18.90;64.90
71668;DHT22;59504;54.806;9.640;2023-08-17T11:48:25;18.80;65.10
71668;DHT22;59504;54.806;9.640;2023-08-17T11:50:44;18.80;66.20
71668;DHT22;59504;54.806;9.640;2023-08-17T11:53:07;18.90;65.90
71668;DHT22;59504;54.806;9.640;2023-08-17T11:55:27;19.00;66.70
71668;DHT22;59504;54.806;9.640;2023-08-17T11:57:46;19.00;66.60
71668;DHT22;59504;54.806;9.640;2023-08-17T12:00:06;19.00;65.70
71668;DHT22;59504;54.806;9.640;2023-08-17T12:02:26;19.00;65.50
71668;DHT22;59504;54.806;9.640;2023-08-17T12:04:46;19.10;65.70
71668;DHT22;59504;54.806;9.640;2023-08-17T12:07:05;19.10;65.80
71668;DHT22;59504;54.806;9.640;2023-08-17T12:09:24;19.20;65.30
71668;DHT22;59504;54.806;9.640;2023-08-17T12:11:44;19.20;65.20
71668;DHT22;59504;54.806;9.640;2023-08-17T12:14:10;19.30;65.00
71668;DHT22;59504;54.806;9.640;2023-08-17T12:16:32;19.20;66.00
71668;DHT22;59504;54.806;9.640;2023-08-17T12:18:52;19.30;66.10
71668;DHT22;59504;54.806;9.640;2023-08-17T12:21:11;19.30;64.90
71668;DHT22;59504;54.806;9.640;2023-08-17T12:23:32;19.30;64.60
71668;DHT22;59504;54.806;9.640;2023-08-17T12:25:54;19.30;63.40
71668;DHT22;59504;54.806;9.640;2023-08-17T12:28:13;19.20;63.10
71668;DHT22;59504;54.806;9.640;2023-08-17T12:30:33;19.30;64.00
71668;DHT22;59504;54.806;9.640;2023-08-17T12:32:54;19.30;64.00
71668;DHT22;59504;54.806;9.640;2023-08-17T12:35:20;19.30;64.30
71668;DHT22;59504;54.806;9.640;2023-08-17T12:37:47;19.40;64.80
71668;DHT22;59504;54.806;9.640;2023-08-17T12:40:07;19.40;64.60
71668;DHT22;59504;54.806;9.640;2023-08-17T12:42:27;19.40;64.50
71668;DHT22;59504;54.806;9.640;2023-08-17T12:44:46;19.40;64.70
71668;DHT22;59504;54.806;9.640;2023-08-17T12:46:46;19.40;64.00
71668;DHT22;59504;54.806;9.640;2023-08-17T12:48:47;19.40;63.80
71668;DHT22;59504;54.806;9.640;2023-08-17T12:50:47;19.40;63.90
71668;DHT22;59504;54.806;9.640;2023-08-17T12:52:48;19.40;64.30
71668;DHT22;59504;54.806;9.640;2023-08-17T12:54:49;19.50;64.50
71668;DHT22;59504;54.806;9.640;2023-08-17T12:56:49;19.50;64.10
71668;DHT22;59504;54.806;9.640;2023-08-17T12:58:50;19.50;64.00
71668;DHT22;59504;54.806;9.640;2023-08-17T13:00:50;19.50;64.10
71668;DHT22;59504;54.806;9.640;2023-08-17T13:02:51;19.60;64.00
71668;DHT22;59504;54.806;9.640;2023-08-17T13:04:52;19.60;64.00
71668;DHT22;59504;54.806;9.640;2023-08-17T13:06:52;19.60;63.60
71668;DHT22;59504;54.806;9.640;2023-08-17T13:08:54;19.60;63.30
71668;DHT22;59504;54.806;9.640;2023-08-17T13:10:54;19.60;63.00
71668;DHT22;59504;54.806;9.640;2023-08-17T13:12:55;19.60;62.80
71668;DHT22;59504;54.806;9.640;2023-08-17T13:14:59;19.60;63.20
71668;DHT22;59504;54.806;9.640;2023-08-17T13:16:59;19.60;63.30
71668;DHT22;59504;54.806;9.640;2023-08-17T13:19:00;19.60;62.80
71668;DHT22;59504;54.806;9.640;2023-08-17T13:21:03;19.70;63.10
71668;DHT22;59504;54.806;9.640;2023-08-17T13:23:04;19.60;62.60
71668;DHT22;59504;54.806;9.640;2023-08-17T13:25:05;19.60;62.50
71668;DHT22;59504;54.806;9.640;2023-08-17T13:27:06;19.60;62.80
71668;DHT22;59504;54.806;9.640;2023-08-17T13:29:08;19.60;62.50
71668;DHT22;59504;54.806;9.640;2023-08-17T13:31:30;19.70;62.80
71668;DHT22;59504;54.806;9.640;2023-08-17T13:33:30;19.70;62.60
71668;DHT22;59504;54.806;9.640;2023-08-17T13:35:51;19.70;62.30
71668;DHT22;59504;54.806;9.640;2023-08-17T13:38:11;19.60;61.60
71668;DHT22;59504;54.806;9.640;2023-08-17T13:40:13;19.70;61.90
71668;DHT22;59504;54.806;9.640;2023-08-17T13:42:34;19.70;62.10
71668;DHT22;59504;54.806;9.640;2023-08-17T13:44:55;19.70;62.40
71668;DHT22;59504;54.806;9.640;2023-08-17T13:47:15;19.70;62.30
71668;DHT22;59504;54.806;9.640;2023-08-17T13:49:36;19.70;61.90
71668;DHT22;59504;54.806;9.640;2023-08-17T13:51:56;19.80;62.10
71668;DHT22;59504;54.806;9.640;2023-08-17T13:54:07;19.80;62.30
71668;DHT22;59504;54.806;9.640;2023-08-17T13:56:28;19.80;62.30
71668;DHT22;59504;54.806;9.640;2023-08-17T13:58:49;19.80;61.70
71668;DHT22;59504;54.806;9.640;2023-08-17T14:01:12;19.90;61.70
71668;DHT22;59504;54.806;9.640;2023-08-17T14:03:40;19.90;61.10
71668;DHT22;59504;54.806;9.640;2023-08-17T14:06:02;19.90;61.20
71668;DHT22;59504;54.806;9.640;2023-08-17T14:08:23;19.90;62.20
71668;DHT22;59504;54.806;9.640;2023-08-17T14:10:43;20.00;62.00
71668;DHT22;59504;54.806;9.640;2023-08-17T14:13:04;20.00;61.80
71668;DHT22;59504;54.806;9.640;2023-08-17T14:15:25;19.90;61.20
71668;DHT22;59504;54.806;9.640;2023-08-17T14:17:45;19.90;61.40
71668;DHT22;59504;54.806;9.640;2023-08-17T14:20:06;19.90;61.70
71668;DHT22;59504;54.806;9.640;2023-08-17T14:22:27;19.90;62.20
71668;DHT22;59504;54.806;9.640;2023-08-17T14:24:47;19.80;62.90
71668;DHT22;59504;54.806;9.640;2023-08-17T14:27:08;19.80;63.20
71668;DHT22;59504;54.806;9.640;2023-08-17T14:29:28;19.70;62.90
71668;DHT22;59504;54.806;9.640;2023-08-17T14:31:49;19.70;63.20
71668;DHT22;59504;54.806;9.640;2023-08-17T14:34:09;19.70;63.50